Mexia, TX

4:18 PM CDT on August 26, 2016 (GMT -0500)
Amateur Radio Station KC5PID | | Change Station

Elev 502 ft 31.67 °N, 96.47 °W | Updated 16 seconds ago

Rain
Rain
76.5 °F
Feels Like 77 °F
N
4.0
Wind Variable Wind from NE
Gusts 4.0 mph

Today
High -- | Low -- °F
--% Chance of Precip.
Yesterday
High -- | Low -- °F
Precip. -- in
Pressure 29.98 in
Visibility 10.0 miles
Clouds Scattered Clouds 10000 ft
Heat Index 77 °F
Dew Point 73 °F
Humidity 90%
Rainfall 0.02 in
Snow Depth Not available.
6:58 AM 7:56 PM
Waning Crescent, 31% visible
METAR KLXY 262115Z AUTO 06007KT 10SM SCT100 26/21 A2998 RMK AO2 LTG DSNT SE T02570213
Pressure 29.98 in
Visibility 10.0 miles
Clouds Scattered Clouds 10000 ft
Heat Index 77 °F
Dew Point 73 °F
Humidity 90%
Rainfall 0.02 in
Snow Depth Not available.
6:58 AM 7:56 PM
Waning Crescent, 31% visible
METAR KLXY 262115Z AUTO 06007KT 10SM SCT100 26/21 A2998 RMK AO2 LTG DSNT SE T02570213

10-Day Weather Forecast

Almanac

Astronomy

Aug. 26, 2016 Rise Set
Actual Time
Civil Twilight
Nautical Twilight
Astronomical Twilight
Moon
Length of Visible Light
Length of Day
Tomorrow will be .
, % of the Moon is Illuminated

Today's Extremes

State Highs State Lows

Community

WunderPhotos

Upload Photos

1,935,206 photos uploaded!

WunderBlog® & News

Nearby

Air Quality

  Air Quality AQ Index Pollutant
Not available.

Snow Depth

Station Depth Elevation

Earthquake Activity

City Distance Mag. Time & Date
Minimum magnitude displayed is 2.5.

Coastal Water Temperatures

Place Temperature

Stations

Nearby Weather Stations

Station Location Temp. Windchill Dew Point Humidity Wind Precip. Elev Updated Type
                   

Watches & Warnings

There are currently no watches in effect.